sensor_id;sensor_type;location;lat;lon;timestamp;P1;durP1;ratioP1;P2;durP2;ratioP2
61144;SDS011;47026;51.208;3.288;2022-09-01T00:01:43;1.17;;;0.90;;
61144;SDS011;47026;51.208;3.288;2022-09-01T00:04:15;2.80;;;1.02;;
61144;SDS011;47026;51.208;3.288;2022-09-01T00:06:44;1.92;;;1.20;;
61144;SDS011;47026;51.208;3.288;2022-09-01T00:09:11;1.75;;;1.02;;
61144;SDS011;47026;51.208;3.288;2022-09-01T00:11:39;2.15;;;0.90;;
61144;SDS011;47026;51.208;3.288;2022-09-01T00:14:06;2.10;;;1.00;;
61144;SDS011;47026;51.208;3.288;2022-09-01T00:16:33;2.08;;;1.15;;
61144;SDS011;47026;51.208;3.288;2022-09-01T00:18:59;5.30;;;1.42;;
61144;SDS011;47026;51.208;3.288;2022-09-01T00:21:26;4.07;;;1.20;;
61144;SDS011;47026;51.208;3.288;2022-09-01T00:23:54;3.72;;;1.23;;
61144;SDS011;47026;51.208;3.288;2022-09-01T00:26:19;2.55;;;1.00;;
61144;SDS011;47026;51.208;3.288;2022-09-01T00:28:45;4.05;;;1.20;;
61144;SDS011;47026;51.208;3.288;2022-09-01T00:31:11;1.90;;;1.00;;
61144;SDS011;47026;51.208;3.288;2022-09-01T00:33:39;3.67;;;1.33;;
61144;SDS011;47026;51.208;3.288;2022-09-01T00:36:05;3.53;;;1.20;;
61144;SDS011;47026;51.208;3.288;2022-09-01T00:38:31;3.62;;;1.30;;
61144;SDS011;47026;51.208;3.288;2022-09-01T00:40:58;3.35;;;1.20;;
61144;SDS011;47026;51.208;3.288;2022-09-01T00:43:44;4.18;;;1.48;;
61144;SDS011;47026;51.208;3.288;2022-09-01T00:46:16;4.85;;;1.17;;
61144;SDS011;47026;51.208;3.288;2022-09-01T00:48:52;4.47;;;1.50;;
61144;SDS011;47026;51.208;3.288;2022-09-01T00:51:27;2.92;;;1.50;;
61144;SDS011;47026;51.208;3.288;2022-09-01T00:53:54;2.53;;;1.23;;
61144;SDS011;47026;51.208;3.288;2022-09-01T00:56:21;3.67;;;1.50;;
61144;SDS011;47026;51.208;3.288;2022-09-01T00:58:47;4.53;;;1.30;;
61144;SDS011;47026;51.208;3.288;2022-09-01T01:01:16;3.33;;;1.30;;
61144;SDS011;47026;51.208;3.288;2022-09-01T01:03:41;5.28;;;1.37;;
61144;SDS011;47026;51.208;3.288;2022-09-01T01:06:08;6.57;;;1.50;;
61144;SDS011;47026;51.208;3.288;2022-09-01T01:08:38;1.48;;;1.20;;
61144;SDS011;47026;51.208;3.288;2022-09-01T01:11:09;3.37;;;1.17;;
61144;SDS011;47026;51.208;3.288;2022-09-01T01:16:36;5.65;;;1.35;;
61144;SDS011;47026;51.208;3.288;2022-09-01T01:19:15;2.70;;;1.50;;
61144;SDS011;47026;51.208;3.288;2022-09-01T01:22:05;3.93;;;1.40;;
61144;SDS011;47026;51.208;3.288;2022-09-01T01:24:55;5.70;;;1.35;;
61144;SDS011;47026;51.208;3.288;2022-09-01T01:27:21;5.07;;;1.20;;
61144;SDS011;47026;51.208;3.288;2022-09-01T01:29:46;3.92;;;1.25;;
61144;SDS011;47026;51.208;3.288;2022-09-01T01:32:12;3.65;;;1.60;;
61144;SDS011;47026;51.208;3.288;2022-09-01T01:34:38;5.55;;;1.40;;
61144;SDS011;47026;51.208;3.288;2022-09-01T01:37:09;4.32;;;1.25;;
61144;SDS011;47026;51.208;3.288;2022-09-01T01:39:38;2.92;;;1.37;;
61144;SDS011;47026;51.208;3.288;2022-09-01T01:42:06;2.25;;;1.20;;
61144;SDS011;47026;51.208;3.288;2022-09-01T01:44:33;3.87;;;1.30;;
61144;SDS011;47026;51.208;3.288;2022-09-01T01:47:02;2.87;;;1.25;;
61144;SDS011;47026;51.208;3.288;2022-09-01T01:49:32;2.50;;;1.33;;
61144;SDS011;47026;51.208;3.288;2022-09-01T01:51:59;2.78;;;1.20;;
61144;SDS011;47026;51.208;3.288;2022-09-01T01:54:25;5.45;;;1.60;;
61144;SDS011;47026;51.208;3.288;2022-09-01T01:56:56;2.53;;;1.15;;
61144;SDS011;47026;51.208;3.288;2022-09-01T01:59:28;1.73;;;1.40;;
61144;SDS011;47026;51.208;3.288;2022-09-01T02:01:54;3.25;;;1.20;;
61144;SDS011;47026;51.208;3.288;2022-09-01T02:04:20;3.80;;;1.65;;
61144;SDS011;47026;51.208;3.288;2022-09-01T02:06:46;3.03;;;1.75;;
61144;SDS011;47026;51.208;3.288;2022-09-01T02:09:14;5.78;;;1.48;;
61144;SDS011;47026;51.208;3.288;2022-09-01T02:11:41;2.67;;;1.20;;
61144;SDS011;47026;51.208;3.288;2022-09-01T02:14:08;3.85;;;1.48;;
61144;SDS011;47026;51.208;3.288;2022-09-01T02:16:34;1.95;;;1.40;;
61144;SDS011;47026;51.208;3.288;2022-09-01T02:19:02;3.05;;;1.37;;
61144;SDS011;47026;51.208;3.288;2022-09-01T02:21:29;4.22;;;1.20;;
61144;SDS011;47026;51.208;3.288;2022-09-01T02:23:56;1.87;;;1.40;;
61144;SDS011;47026;51.208;3.288;2022-09-01T02:26:29;2.65;;;1.40;;
61144;SDS011;47026;51.208;3.288;2022-09-01T02:29:03;2.30;;;1.20;;
61144;SDS011;47026;51.208;3.288;2022-09-01T02:31:31;6.45;;;1.50;;
61144;SDS011;47026;51.208;3.288;2022-09-01T02:34:05;3.85;;;1.75;;
61144;SDS011;47026;51.208;3.288;2022-09-01T02:36:38;3.67;;;1.33;;
61144;SDS011;47026;51.208;3.288;2022-09-01T02:39:12;5.35;;;1.75;;
61144;SDS011;47026;51.208;3.288;2022-09-01T02:41:43;2.10;;;1.20;;
61144;SDS011;47026;51.208;3.288;2022-09-01T02:44:09;1.77;;;1.30;;
61144;SDS011;47026;51.208;3.288;2022-09-01T02:46:38;4.30;;;1.58;;
61144;SDS011;47026;51.208;3.288;2022-09-01T02:49:09;3.42;;;1.45;;
61144;SDS011;47026;51.208;3.288;2022-09-01T02:51:43;3.42;;;1.60;;
61144;SDS011;47026;51.208;3.288;2022-09-01T02:54:11;3.00;;;1.30;;
61144;SDS011;47026;51.208;3.288;2022-09-01T02:56:43;1.73;;;1.10;;
61144;SDS011;47026;51.208;3.288;2022-09-01T02:59:16;3.15;;;1.35;;
61144;SDS011;47026;51.208;3.288;2022-09-01T03:01:45;1.35;;;1.20;;
61144;SDS011;47026;51.208;3.288;2022-09-01T03:04:12;3.92;;;1.30;;
61144;SDS011;47026;51.208;3.288;2022-09-01T03:06:38;3.33;;;1.35;;
61144;SDS011;47026;51.208;3.288;2022-09-01T03:09:06;2.62;;;1.30;;
61144;SDS011;47026;51.208;3.288;2022-09-01T03:11:36;3.65;;;1.48;;
61144;SDS011;47026;51.208;3.288;2022-09-01T03:14:04;3.47;;;1.77;;
61144;SDS011;47026;51.208;3.288;2022-09-01T03:16:30;3.78;;;1.50;;
61144;SDS011;47026;51.208;3.288;2022-09-01T03:18:57;5.15;;;1.62;;
61144;SDS011;47026;51.208;3.288;2022-09-01T03:21:23;3.22;;;1.60;;
61144;SDS011;47026;51.208;3.288;2022-09-01T03:23:50;3.67;;;1.85;;
61144;SDS011;47026;51.208;3.288;2022-09-01T03:26:17;7.45;;;1.70;;
61144;SDS011;47026;51.208;3.288;2022-09-01T03:28:45;5.47;;;1.70;;
61144;SDS011;47026;51.208;3.288;2022-09-01T03:31:12;3.80;;;1.60;;
61144;SDS011;47026;51.208;3.288;2022-09-01T03:33:38;4.72;;;1.60;;
61144;SDS011;47026;51.208;3.288;2022-09-01T03:36:04;3.05;;;1.35;;
61144;SDS011;47026;51.208;3.288;2022-09-01T03:38:31;6.82;;;1.87;;
61144;SDS011;47026;51.208;3.288;2022-09-01T03:40:59;3.70;;;1.30;;
61144;SDS011;47026;51.208;3.288;2022-09-01T03:43:29;3.22;;;1.60;;
61144;SDS011;47026;51.208;3.288;2022-09-01T03:45:57;2.72;;;1.60;;
61144;SDS011;47026;51.208;3.288;2022-09-01T03:48:27;3.78;;;1.80;;
61144;SDS011;47026;51.208;3.288;2022-09-01T03:50:55;1.90;;;1.40;;
61144;SDS011;47026;51.208;3.288;2022-09-01T03:53:26;2.22;;;1.80;;
61144;SDS011;47026;51.208;3.288;2022-09-01T03:55:53;3.40;;;1.75;;
61144;SDS011;47026;51.208;3.288;2022-09-01T03:58:21;6.03;;;1.92;;
61144;SDS011;47026;51.208;3.288;2022-09-01T04:00:49;4.12;;;1.80;;
61144;SDS011;47026;51.208;3.288;2022-09-01T04:03:20;3.80;;;1.67;;
61144;SDS011;47026;51.208;3.288;2022-09-01T04:05:51;2.37;;;1.83;;
61144;SDS011;47026;51.208;3.288;2022-09-01T04:08:18;2.70;;;1.75;;
61144;SDS011;47026;51.208;3.288;2022-09-01T04:10:46;2.85;;;1.80;;
61144;SDS011;47026;51.208;3.288;2022-09-01T04:13:18;3.53;;;1.87;;
61144;SDS011;47026;51.208;3.288;2022-09-01T04:15:46;5.57;;;1.85;;
61144;SDS011;47026;51.208;3.288;2022-09-01T04:18:13;6.75;;;2.35;;
61144;SDS011;47026;51.208;3.288;2022-09-01T04:20:47;11.30;;;2.33;;
61144;SDS011;47026;51.208;3.288;2022-09-01T04:23:36;8.75;;;3.17;;
61144;SDS011;47026;51.208;3.288;2022-09-01T04:26:02;6.23;;;2.30;;
61144;SDS011;47026;51.208;3.288;2022-09-01T04:28:34;5.10;;;2.10;;
61144;SDS011;47026;51.208;3.288;2022-09-01T04:31:03;3.62;;;2.05;;
61144;SDS011;47026;51.208;3.288;2022-09-01T04:33:33;4.50;;;2.00;;
61144;SDS011;47026;51.208;3.288;2022-09-01T04:36:04;3.33;;;1.98;;
61144;SDS011;47026;51.208;3.288;2022-09-01T04:38:31;3.72;;;1.90;;
61144;SDS011;47026;51.208;3.288;2022-09-01T04:41:02;4.75;;;2.20;;
61144;SDS011;47026;51.208;3.288;2022-09-01T04:43:30;6.78;;;2.28;;
61144;SDS011;47026;51.208;3.288;2022-09-01T04:45:57;3.42;;;2.10;;
61144;SDS011;47026;51.208;3.288;2022-09-01T04:50:49;7.75;;;2.30;;
61144;SDS011;47026;51.208;3.288;2022-09-01T04:53:16;6.45;;;2.40;;
61144;SDS011;47026;51.208;3.288;2022-09-01T04:55:43;6.15;;;2.20;;
61144;SDS011;47026;51.208;3.288;2022-09-01T04:58:11;5.90;;;2.30;;
61144;SDS011;47026;51.208;3.288;2022-09-01T05:00:41;2.28;;;2.08;;
61144;SDS011;47026;51.208;3.288;2022-09-01T05:03:09;3.37;;;2.37;;
61144;SDS011;47026;51.208;3.288;2022-09-01T05:05:37;4.60;;;2.35;;
61144;SDS011;47026;51.208;3.288;2022-09-01T05:08:11;9.77;;;2.65;;
61144;SDS011;47026;51.208;3.288;2022-09-01T05:10:40;6.90;;;2.78;;
61144;SDS011;47026;51.208;3.288;2022-09-01T05:13:08;4.37;;;2.40;;
61144;SDS011;47026;51.208;3.288;2022-09-01T05:15:39;6.28;;;2.30;;
61144;SDS011;47026;51.208;3.288;2022-09-01T05:18:19;7.53;;;2.85;;
61144;SDS011;47026;51.208;3.288;2022-09-01T05:20:48;4.55;;;2.40;;
61144;SDS011;47026;51.208;3.288;2022-09-01T05:23:16;4.60;;;2.83;;
61144;SDS011;47026;51.208;3.288;2022-09-01T05:25:49;5.37;;;2.37;;
61144;SDS011;47026;51.208;3.288;2022-09-01T05:28:19;4.57;;;2.22;;
61144;SDS011;47026;51.208;3.288;2022-09-01T05:30:48;5.28;;;2.80;;
61144;SDS011;47026;51.208;3.288;2022-09-01T05:33:18;5.72;;;2.83;;
61144;SDS011;47026;51.208;3.288;2022-09-01T05:35:52;9.85;;;3.20;;
61144;SDS011;47026;51.208;3.288;2022-09-01T05:38:20;5.15;;;2.37;;
61144;SDS011;47026;51.208;3.288;2022-09-01T05:40:53;6.30;;;2.50;;
61144;SDS011;47026;51.208;3.288;2022-09-01T05:43:21;7.87;;;3.80;;
61144;SDS011;47026;51.208;3.288;2022-09-01T05:45:47;9.73;;;6.22;;
61144;SDS011;47026;51.208;3.288;2022-09-01T05:50:41;3.28;;;2.42;;
61144;SDS011;47026;51.208;3.288;2022-09-01T05:55:42;4.90;;;2.58;;
61144;SDS011;47026;51.208;3.288;2022-09-01T05:58:10;4.10;;;2.67;;
61144;SDS011;47026;51.208;3.288;2022-09-01T06:00:41;4.87;;;2.58;;
61144;SDS011;47026;51.208;3.288;2022-09-01T06:03:11;6.00;;;2.55;;
61144;SDS011;47026;51.208;3.288;2022-09-01T06:05:38;5.00;;;2.80;;
61144;SDS011;47026;51.208;3.288;2022-09-01T06:08:05;10.90;;;3.70;;
61144;SDS011;47026;51.208;3.288;2022-09-01T06:10:35;5.95;;;3.67;;
61144;SDS011;47026;51.208;3.288;2022-09-01T06:13:04;3.60;;;2.70;;
61144;SDS011;47026;51.208;3.288;2022-09-01T06:15:33;4.35;;;3.10;;
61144;SDS011;47026;51.208;3.288;2022-09-01T06:18:03;5.20;;;2.85;;
61144;SDS011;47026;51.208;3.288;2022-09-01T06:20:37;7.60;;;2.80;;
61144;SDS011;47026;51.208;3.288;2022-09-01T06:23:04;5.28;;;3.20;;
61144;SDS011;47026;51.208;3.288;2022-09-01T06:25:30;8.52;;;3.15;;
61144;SDS011;47026;51.208;3.288;2022-09-01T06:27:57;5.68;;;2.72;;
61144;SDS011;47026;51.208;3.288;2022-09-01T06:30:23;6.00;;;3.42;;
61144;SDS011;47026;51.208;3.288;2022-09-01T06:32:51;5.03;;;3.87;;
61144;SDS011;47026;51.208;3.288;2022-09-01T06:35:18;4.87;;;3.25;;
61144;SDS011;47026;51.208;3.288;2022-09-01T06:37:44;5.25;;;3.40;;
61144;SDS011;47026;51.208;3.288;2022-09-01T06:40:11;13.07;;;7.32;;
61144;SDS011;47026;51.208;3.288;2022-09-01T06:42:42;8.18;;;4.10;;
61144;SDS011;47026;51.208;3.288;2022-09-01T06:45:16;5.40;;;3.35;;
61144;SDS011;47026;51.208;3.288;2022-09-01T06:47:47;7.75;;;3.60;;
61144;SDS011;47026;51.208;3.288;2022-09-01T06:50:15;6.37;;;3.25;;
61144;SDS011;47026;51.208;3.288;2022-09-01T06:52:45;5.85;;;3.35;;
61144;SDS011;47026;51.208;3.288;2022-09-01T06:55:14;4.18;;;3.20;;
61144;SDS011;47026;51.208;3.288;2022-09-01T06:57:41;5.55;;;2.95;;
61144;SDS011;47026;51.208;3.288;2022-09-01T07:00:13;4.10;;;3.42;;
61144;SDS011;47026;51.208;3.288;2022-09-01T07:02:45;6.75;;;3.20;;
61144;SDS011;47026;51.208;3.288;2022-09-01T07:05:13;4.45;;;3.22;;
61144;SDS011;47026;51.208;3.288;2022-09-01T07:07:45;6.82;;;3.35;;
61144;SDS011;47026;51.208;3.288;2022-09-01T07:10:24;7.12;;;3.60;;
61144;SDS011;47026;51.208;3.288;2022-09-01T07:12:51;5.75;;;3.53;;
61144;SDS011;47026;51.208;3.288;2022-09-01T07:15:20;6.07;;;3.85;;
61144;SDS011;47026;51.208;3.288;2022-09-01T07:17:50;6.28;;;3.75;;
61144;SDS011;47026;51.208;3.288;2022-09-01T07:20:19;6.72;;;3.70;;
61144;SDS011;47026;51.208;3.288;2022-09-01T07:22:47;7.37;;;4.37;;
61144;SDS011;47026;51.208;3.288;2022-09-01T07:25:13;6.65;;;3.92;;
61144;SDS011;47026;51.208;3.288;2022-09-01T07:27:40;7.87;;;4.47;;
61144;SDS011;47026;51.208;3.288;2022-09-01T07:30:18;6.32;;;4.28;;
61144;SDS011;47026;51.208;3.288;2022-09-01T07:32:45;7.62;;;4.37;;
61144;SDS011;47026;51.208;3.288;2022-09-01T07:35:12;5.82;;;4.20;;
61144;SDS011;47026;51.208;3.288;2022-09-01T07:37:39;8.10;;;4.20;;
61144;SDS011;47026;51.208;3.288;2022-09-01T07:40:07;5.87;;;4.05;;
61144;SDS011;47026;51.208;3.288;2022-09-01T07:42:34;6.55;;;3.90;;
61144;SDS011;47026;51.208;3.288;2022-09-01T07:45:02;5.40;;;4.30;;
61144;SDS011;47026;51.208;3.288;2022-09-01T07:47:49;7.30;;;4.53;;
61144;SDS011;47026;51.208;3.288;2022-09-01T07:50:14;6.57;;;4.50;;
61144;SDS011;47026;51.208;3.288;2022-09-01T07:52:41;5.30;;;4.72;;
61144;SDS011;47026;51.208;3.288;2022-09-01T07:55:10;5.95;;;4.50;;
61144;SDS011;47026;51.208;3.288;2022-09-01T07:57:41;7.70;;;4.32;;
61144;SDS011;47026;51.208;3.288;2022-09-01T08:00:11;7.45;;;4.22;;
61144;SDS011;47026;51.208;3.288;2022-09-01T08:02:38;6.50;;;4.50;;
61144;SDS011;47026;51.208;3.288;2022-09-01T08:05:06;7.70;;;4.40;;
61144;SDS011;47026;51.208;3.288;2022-09-01T08:07:33;7.05;;;4.78;;
61144;SDS011;47026;51.208;3.288;2022-09-01T08:09:59;6.68;;;4.62;;
61144;SDS011;47026;51.208;3.288;2022-09-01T08:12:25;10.32;;;5.20;;
61144;SDS011;47026;51.208;3.288;2022-09-01T08:14:50;8.73;;;5.15;;
61144;SDS011;47026;51.208;3.288;2022-09-01T08:17:17;8.57;;;5.05;;
61144;SDS011;47026;51.208;3.288;2022-09-01T08:19:44;9.25;;;4.95;;
61144;SDS011;47026;51.208;3.288;2022-09-01T08:22:11;9.82;;;5.35;;
61144;SDS011;47026;51.208;3.288;2022-09-01T08:24:37;8.32;;;5.10;;
61144;SDS011;47026;51.208;3.288;2022-09-01T08:27:03;7.32;;;4.40;;
61144;SDS011;47026;51.208;3.288;2022-09-01T08:29:28;9.82;;;5.25;;
61144;SDS011;47026;51.208;3.288;2022-09-01T08:31:54;8.43;;;5.47;;
61144;SDS011;47026;51.208;3.288;2022-09-01T08:34:23;9.75;;;4.40;;
61144;SDS011;47026;51.208;3.288;2022-09-01T08:36:49;7.47;;;4.78;;
61144;SDS011;47026;51.208;3.288;2022-09-01T08:39:15;6.15;;;4.85;;
61144;SDS011;47026;51.208;3.288;2022-09-01T08:41:46;6.90;;;5.03;;
61144;SDS011;47026;51.208;3.288;2022-09-01T08:47:06;7.22;;;4.87;;
61144;SDS011;47026;51.208;3.288;2022-09-01T08:49:34;7.93;;;4.78;;
61144;SDS011;47026;51.208;3.288;2022-09-01T08:53:04;9.60;;;5.47;;
61144;SDS011;47026;51.208;3.288;2022-09-01T08:55:20;9.50;;;5.05;;
61144;SDS011;47026;51.208;3.288;2022-09-01T08:57:51;8.60;;;5.35;;
61144;SDS011;47026;51.208;3.288;2022-09-01T09:00:22;7.55;;;5.15;;
61144;SDS011;47026;51.208;3.288;2022-09-01T09:05:36;8.18;;;5.53;;
61144;SDS011;47026;51.208;3.288;2022-09-01T09:10:43;6.95;;;4.85;;
61144;SDS011;47026;51.208;3.288;2022-09-01T09:16:07;8.18;;;5.05;;
61144;SDS011;47026;51.208;3.288;2022-09-01T09:18:53;5.25;;;4.78;;
61144;SDS011;47026;51.208;3.288;2022-09-01T09:21:34;6.47;;;5.03;;
61144;SDS011;47026;51.208;3.288;2022-09-01T09:26:52;7.93;;;5.10;;
61144;SDS011;47026;51.208;3.288;2022-09-01T09:29:23;6.78;;;4.12;;
61144;SDS011;47026;51.208;3.288;2022-09-01T09:32:05;9.45;;;5.12;;
61144;SDS011;47026;51.208;3.288;2022-09-01T09:34:34;6.25;;;4.62;;
61144;SDS011;47026;51.208;3.288;2022-09-01T09:40:15;8.15;;;4.78;;
61144;SDS011;47026;51.208;3.288;2022-09-01T09:45:25;7.05;;;5.00;;
61144;SDS011;47026;51.208;3.288;2022-09-01T09:47:53;7.65;;;3.92;;
61144;SDS011;47026;51.208;3.288;2022-09-01T09:50:28;8.00;;;4.50;;
61144;SDS011;47026;51.208;3.288;2022-09-01T09:53:09;6.00;;;4.30;;
61144;SDS011;47026;51.208;3.288;2022-09-01T09:55:49;9.07;;;4.30;;
61144;SDS011;47026;51.208;3.288;2022-09-01T09:58:19;4.68;;;4.03;;
61144;SDS011;47026;51.208;3.288;2022-09-01T10:01:04;8.48;;;3.60;;
61144;SDS011;47026;51.208;3.288;2022-09-01T10:03:42;8.02;;;4.72;;
61144;SDS011;47026;51.208;3.288;2022-09-01T10:06:09;7.12;;;4.25;;
61144;SDS011;47026;51.208;3.288;2022-09-01T10:08:38;4.57;;;3.40;;
61144;SDS011;47026;51.208;3.288;2022-09-01T10:11:09;6.40;;;4.00;;
61144;SDS011;47026;51.208;3.288;2022-09-01T10:13:48;7.28;;;4.10;;
61144;SDS011;47026;51.208;3.288;2022-09-01T10:16:27;5.05;;;4.00;;
61144;SDS011;47026;51.208;3.288;2022-09-01T10:18:57;4.12;;;3.72;;
61144;SDS011;47026;51.208;3.288;2022-09-01T10:24:02;5.90;;;4.07;;
61144;SDS011;47026;51.208;3.288;2022-09-01T10:26:44;3.60;;;2.95;;
61144;SDS011;47026;51.208;3.288;2022-09-01T10:29:14;5.65;;;3.53;;
61144;SDS011;47026;51.208;3.288;2022-09-01T10:31:43;8.60;;;3.40;;
61144;SDS011;47026;51.208;3.288;2022-09-01T10:34:10;8.00;;;3.80;;
61144;SDS011;47026;51.208;3.288;2022-09-01T10:36:41;8.05;;;2.97;;
61144;SDS011;47026;51.208;3.288;2022-09-01T10:39:09;5.03;;;3.28;;
61144;SDS011;47026;51.208;3.288;2022-09-01T10:41:47;4.93;;;3.28;;
61144;SDS011;47026;51.208;3.288;2022-09-01T10:46:59;4.55;;;2.78;;
61144;SDS011;47026;51.208;3.288;2022-09-01T10:51:52;4.15;;;3.00;;
61144;SDS011;47026;51.208;3.288;2022-09-01T10:54:54;3.37;;;2.87;;
61144;SDS011;47026;51.208;3.288;2022-09-01T11:00:14;5.87;;;2.67;;
61144;SDS011;47026;51.208;3.288;2022-09-01T11:21:41;3.10;;;2.62;;
61144;SDS011;47026;51.208;3.288;2022-09-01T11:27:11;9.57;;;3.45;;
61144;SDS011;47026;51.208;3.288;2022-09-01T11:29:58;4.03;;;3.17;;
61144;SDS011;47026;51.208;3.288;2022-09-01T11:32:33;4.90;;;2.90;;
61144;SDS011;47026;51.208;3.288;2022-09-01T11:35:04;4.50;;;2.80;;
61144;SDS011;47026;51.208;3.288;2022-09-01T11:37:40;6.05;;;2.70;;
61144;SDS011;47026;51.208;3.288;2022-09-01T11:40:06;4.18;;;2.67;;
61144;SDS011;47026;51.208;3.288;2022-09-01T11:42:41;2.70;;;2.50;;
61144;SDS011;47026;51.208;3.288;2022-09-01T11:50:30;4.75;;;3.00;;
61144;SDS011;47026;51.208;3.288;2022-09-01T11:53:00;5.18;;;3.12;;
61144;SDS011;47026;51.208;3.288;2022-09-01T11:55:31;4.60;;;3.28;;
61144;SDS011;47026;51.208;3.288;2022-09-01T11:58:02;8.93;;;2.95;;
61144;SDS011;47026;51.208;3.288;2022-09-01T12:00:31;3.53;;;2.87;;
61144;SDS011;47026;51.208;3.288;2022-09-01T12:03:21;4.78;;;2.95;;
61144;SDS011;47026;51.208;3.288;2022-09-01T12:06:00;4.93;;;3.40;;
61144;SDS011;47026;51.208;3.288;2022-09-01T12:11:11;7.78;;;3.10;;
61144;SDS011;47026;51.208;3.288;2022-09-01T12:13:53;3.72;;;3.00;;
61144;SDS011;47026;51.208;3.288;2022-09-01T12:16:22;5.40;;;3.40;;
61144;SDS011;47026;51.208;3.288;2022-09-01T12:18:49;5.15;;;3.40;;
61144;SDS011;47026;51.208;3.288;2022-09-01T12:21:27;4.30;;;3.03;;
61144;SDS011;47026;51.208;3.288;2022-09-01T12:26:41;3.40;;;3.10;;
61144;SDS011;47026;51.208;3.288;2022-09-01T12:29:08;3.72;;;2.85;;
61144;SDS011;47026;51.208;3.288;2022-09-01T12:31:38;3.33;;;3.00;;
61144;SDS011;47026;51.208;3.288;2022-09-01T12:34:22;3.40;;;3.03;;
61144;SDS011;47026;51.208;3.288;2022-09-01T12:39:36;4.50;;;3.00;;
61144;SDS011;47026;51.208;3.288;2022-09-01T12:42:05;5.57;;;2.62;;
61144;SDS011;47026;51.208;3.288;2022-09-01T12:47:03;5.22;;;3.05;;
61144;SDS011;47026;51.208;3.288;2022-09-01T12:49:35;3.87;;;2.60;;
61144;SDS011;47026;51.208;3.288;2022-09-01T12:52:05;8.55;;;2.80;;
61144;SDS011;47026;51.208;3.288;2022-09-01T12:54:44;3.83;;;2.95;;
61144;SDS011;47026;51.208;3.288;2022-09-01T13:00:06;5.50;;;2.60;;
61144;SDS011;47026;51.208;3.288;2022-09-01T13:02:37;5.32;;;2.65;;
61144;SDS011;47026;51.208;3.288;2022-09-01T13:07:57;4.57;;;2.95;;
61144;SDS011;47026;51.208;3.288;2022-09-01T13:10:25;4.35;;;2.47;;
61144;SDS011;47026;51.208;3.288;2022-09-01T13:12:54;4.40;;;2.80;;
61144;SDS011;47026;51.208;3.288;2022-09-01T13:15:22;3.75;;;2.78;;
61144;SDS011;47026;51.208;3.288;2022-09-01T13:17:49;5.35;;;2.95;;
61144;SDS011;47026;51.208;3.288;2022-09-01T13:20:15;5.72;;;2.80;;
61144;SDS011;47026;51.208;3.288;2022-09-01T13:22:41;3.22;;;2.50;;
61144;SDS011;47026;51.208;3.288;2022-09-01T13:25:08;3.80;;;2.83;;
61144;SDS011;47026;51.208;3.288;2022-09-01T13:27:36;3.53;;;2.60;;
61144;SDS011;47026;51.208;3.288;2022-09-01T13:30:03;4.32;;;2.90;;
61144;SDS011;47026;51.208;3.288;2022-09-01T13:32:30;3.22;;;2.75;;
61144;SDS011;47026;51.208;3.288;2022-09-01T13:34:56;3.95;;;2.78;;
61144;SDS011;47026;51.208;3.288;2022-09-01T13:37:22;5.10;;;2.85;;
61144;SDS011;47026;51.208;3.288;2022-09-01T13:39:48;4.53;;;2.55;;
61144;SDS011;47026;51.208;3.288;2022-09-01T13:42:14;3.62;;;2.72;;
61144;SDS011;47026;51.208;3.288;2022-09-01T13:44:40;5.28;;;2.25;;
61144;SDS011;47026;51.208;3.288;2022-09-01T13:47:05;4.87;;;2.78;;
61144;SDS011;47026;51.208;3.288;2022-09-01T13:49:31;7.57;;;3.10;;
61144;SDS011;47026;51.208;3.288;2022-09-01T13:51:57;4.57;;;2.60;;
61144;SDS011;47026;51.208;3.288;2022-09-01T13:54:22;5.70;;;2.60;;
61144;SDS011;47026;51.208;3.288;2022-09-01T13:56:48;16.48;;;3.33;;
61144;SDS011;47026;51.208;3.288;2022-09-01T13:59:13;5.82;;;3.00;;
61144;SDS011;47026;51.208;3.288;2022-09-01T14:01:39;4.50;;;2.45;;
61144;SDS011;47026;51.208;3.288;2022-09-01T14:04:08;5.70;;;2.80;;
61144;SDS011;47026;51.208;3.288;2022-09-01T14:06:43;6.37;;;2.80;;
61144;SDS011;47026;51.208;3.288;2022-09-01T14:09:09;5.32;;;2.72;;
61144;SDS011;47026;51.208;3.288;2022-09-01T14:11:36;6.87;;;2.65;;
61144;SDS011;47026;51.208;3.288;2022-09-01T14:14:02;4.62;;;2.70;;
61144;SDS011;47026;51.208;3.288;2022-09-01T14:16:27;4.55;;;2.53;;
61144;SDS011;47026;51.208;3.288;2022-09-01T14:18:53;3.35;;;2.47;;
61144;SDS011;47026;51.208;3.288;2022-09-01T14:21:19;3.25;;;2.75;;
61144;SDS011;47026;51.208;3.288;2022-09-01T14:23:44;4.35;;;2.47;;
61144;SDS011;47026;51.208;3.288;2022-09-01T14:26:11;5.65;;;2.58;;
61144;SDS011;47026;51.208;3.288;2022-09-01T14:28:40;4.65;;;2.30;;
61144;SDS011;47026;51.208;3.288;2022-09-01T14:31:10;5.15;;;2.50;;
61144;SDS011;47026;51.208;3.288;2022-09-01T14:33:36;5.12;;;2.83;;
61144;SDS011;47026;51.208;3.288;2022-09-01T14:36:03;3.60;;;2.47;;
61144;SDS011;47026;51.208;3.288;2022-09-01T14:38:34;3.12;;;2.50;;
61144;SDS011;47026;51.208;3.288;2022-09-01T14:41:01;3.95;;;2.47;;
61144;SDS011;47026;51.208;3.288;2022-09-01T14:43:27;3.95;;;2.72;;
61144;SDS011;47026;51.208;3.288;2022-09-01T14:46:05;5.30;;;2.50;;
61144;SDS011;47026;51.208;3.288;2022-09-01T14:48:32;2.90;;;2.65;;
61144;SDS011;47026;51.208;3.288;2022-09-01T14:50:59;3.47;;;2.35;;
61144;SDS011;47026;51.208;3.288;2022-09-01T14:53:25;4.47;;;2.30;;
61144;SDS011;47026;51.208;3.288;2022-09-01T14:55:58;6.68;;;2.58;;
61144;SDS011;47026;51.208;3.288;2022-09-01T14:58:25;3.90;;;2.60;;
61144;SDS011;47026;51.208;3.288;2022-09-01T15:00:52;4.45;;;2.30;;
61144;SDS011;47026;51.208;3.288;2022-09-01T15:03:20;3.92;;;2.50;;
61144;SDS011;47026;51.208;3.288;2022-09-01T15:05:50;4.50;;;2.90;;
61144;SDS011;47026;51.208;3.288;2022-09-01T15:08:18;3.53;;;2.60;;
61144;SDS011;47026;51.208;3.288;2022-09-01T15:10:43;5.40;;;2.70;;
61144;SDS011;47026;51.208;3.288;2022-09-01T15:13:09;4.62;;;2.40;;
61144;SDS011;47026;51.208;3.288;2022-09-01T15:15:36;6.03;;;3.17;;
61144;SDS011;47026;51.208;3.288;2022-09-01T15:18:02;7.68;;;2.80;;
61144;SDS011;47026;51.208;3.288;2022-09-01T15:20:28;4.20;;;3.35;;
61144;SDS011;47026;51.208;3.288;2022-09-01T15:23:14;7.22;;;3.20;;
61144;SDS011;47026;51.208;3.288;2022-09-01T15:25:42;7.62;;;3.30;;
61144;SDS011;47026;51.208;3.288;2022-09-01T15:28:08;7.28;;;3.10;;
61144;SDS011;47026;51.208;3.288;2022-09-01T15:30:34;10.20;;;3.72;;
61144;SDS011;47026;51.208;3.288;2022-09-01T15:33:00;9.80;;;3.55;;
61144;SDS011;47026;51.208;3.288;2022-09-01T15:35:27;8.90;;;3.62;;
61144;SDS011;47026;51.208;3.288;2022-09-01T15:37:53;8.43;;;3.97;;
61144;SDS011;47026;51.208;3.288;2022-09-01T15:40:21;7.68;;;3.67;;
61144;SDS011;47026;51.208;3.288;2022-09-01T15:42:47;7.37;;;3.78;;
61144;SDS011;47026;51.208;3.288;2022-09-01T15:45:14;6.35;;;3.80;;
61144;SDS011;47026;51.208;3.288;2022-09-01T15:47:42;5.75;;;3.78;;
61144;SDS011;47026;51.208;3.288;2022-09-01T15:50:09;5.85;;;3.40;;
61144;SDS011;47026;51.208;3.288;2022-09-01T15:52:51;10.93;;;4.28;;
61144;SDS011;47026;51.208;3.288;2022-09-01T15:55:17;6.50;;;3.92;;
61144;SDS011;47026;51.208;3.288;2022-09-01T15:57:45;7.50;;;4.03;;
61144;SDS011;47026;51.208;3.288;2022-09-01T16:00:11;5.80;;;3.95;;
61144;SDS011;47026;51.208;3.288;2022-09-01T16:02:37;7.28;;;3.83;;
61144;SDS011;47026;51.208;3.288;2022-09-01T16:05:03;8.43;;;4.03;;
61144;SDS011;47026;51.208;3.288;2022-09-01T16:07:29;5.22;;;3.97;;
61144;SDS011;47026;51.208;3.288;2022-09-01T16:09:55;5.45;;;3.95;;
61144;SDS011;47026;51.208;3.288;2022-09-01T16:12:22;9.18;;;3.70;;
61144;SDS011;47026;51.208;3.288;2022-09-01T16:14:54;6.93;;;3.85;;
61144;SDS011;47026;51.208;3.288;2022-09-01T16:17:21;7.90;;;4.12;;
61144;SDS011;47026;51.208;3.288;2022-09-01T16:20:03;9.05;;;3.65;;
61144;SDS011;47026;51.208;3.288;2022-09-01T16:22:35;6.30;;;3.87;;
61144;SDS011;47026;51.208;3.288;2022-09-01T16:25:07;7.85;;;4.12;;
61144;SDS011;47026;51.208;3.288;2022-09-01T16:27:39;9.48;;;3.83;;